home | artists | genres | years | calendar | countries | playbacks | last played

Records of ethnic

overviewpopular tracks

Artist Record Year Power Played Added Last Played
Deep Forest World Mix 1994 1.0 5 1996-01-05 2015-05-01
Deep Forest Boheme 1995 8.0 21 1996-01-05 2016-12-28
Michel Sanchez Windows 1994 4.1 50 1997-08-05 2015-03-15
Deep Forest Comparsa 1997 3.0 12 1998-01-05 2015-05-01
Tibetan Buddhist Monks Sacred Music, Sacred Dance 0 0.0 0 1998-05-05 Never
Tibetan Buddhist Monks Tibet Traditional Music 0 0.0 0 1998-05-05 Never
Wes Madiko Welenga 1996 2.0 7 1998-06-05 2012-09-23
Vangelis 1492: Conquest Of Paradise 1992 5.0 53 1998-08-31 2015-08-27
Clannad An Diolaim 1998 0.0 0 1999-01-05 Never
Peter Gabriel Passion 1989 0.0 7 1999-02-05 2015-08-03
Аквариум Bardo [Русско-Абиссинский Оркестр] 1997 1.0 6 1999-05-05 2018-04-14
The Ondekoza The Ondekoza 1994 0.0 0 1999-08-05 Never
Enigma The Cross Of Changes 1993 1.0 13 1999-10-05 2008-03-30
Enigma Le Roi Est Mort, Vive Le Roi! 1995 4.0 15 1999-10-05 2009-08-04
Era Era 1996 4.0 15 1999-10-05 2019-11-24
Enigma MCMXC A.D. 1990 1.0 6 1999-10-05 2012-09-06
Steve Roach Forgotten Gods (as Suspended Memories) 1993 0.0 0 1999-10-05 Never
Иван Купала Кострома 1999 0.0 0 1999-11-05 Never
Mike Oldfield The Millennium Bell 1999 2.0 31 2000-01-05 2015-09-01
Аквариум Ихтиология 1984 1.1 6 2000-02-05 2018-04-14
Борис Гребенщиков Refuge (with The Mirrors) 1998 0.0 6 2000-02-05 2008-01-14
Moby Ambient 1993 1.0 4 2000-06-05 2009-07-23
Yanni If I Could Tell You 2000 2.0 11 2000-10-05 2012-11-21
Ralf Hildenbeutel Hommage a Noir 1997 1.0 4 2000-10-05 2015-04-15
George Harrison Wonderwall Music 1968 0.0 0 2001-01-31 Never
Vangelis China 1979 6.0 61 2001-01-31 2018-02-19
Paul McCartney Rushes (as The Fireman) 1998 0.0 0 2001-01-31 Never
Tangerine Dream Great Wall Of China 2000 0.0 0 2001-01-31 Never
Clannad Magical Ring 1983 0.0 0 2001-03-05 Never
Clannad Clannad 1973 0.0 0 2001-03-05 Never
Clannad Lore 1995 0.0 0 2001-03-05 Never
Clannad Landmarks 1999 1.1 13 2001-03-05 2008-03-30
Clannad Anam 1992 0.0 0 2001-03-05 Never
Clannad Clannad II 1974 0.0 0 2001-03-05 Never
Maire Brennan Misty Eyed Adventures 1995 0.0 1 2001-03-05 2007-09-19
Clannad Banba 1993 0.0 0 2001-03-05 Never
Clannad Dúlamán 1976 0.0 0 2001-03-05 Never
Maire Brennan Whisper To The Wind Water 1999 1.0 4 2001-03-05 2011-04-03
Clannad Crann Úll 1978 0.0 0 2001-03-05 Never
Clannad Atlantic Realm 1989 0.0 0 2001-03-05 Never
Clannad Fuaim 1982 0.0 0 2001-03-05 Never
Clannad Legend 1984 0.0 0 2001-03-05 Never
Clannad In Concert 1979 0.0 0 2001-03-05 Never
Robert Miles Organik 2001 0.1 4 2001-03-31 2008-04-01
Benny Andersson Klinga Mina Klockor 1987 0.0 4 2001-03-31 2006-01-17
Benny Andersson November 1989 1989 0.2 9 2001-03-31 2008-04-09
Era Era 2 2000 1.0 3 2001-04-05 2008-04-09
Sainkho Out Of Tuva 1993 0.0 0 2001-05-05 Never
various National Scotland Marches 0 1.0 6 2001-05-05 2010-05-19
various Российские Боевые Марши 2001 0.0 0 2001-05-05 Never
various Японская Музыка Кото 0 0.0 0 2001-05-05 Never
The Rustavi Choir Georgian Voices 1989 0.0 35 2001-06-05 2008-08-08
Макс Фадеев Нега 1997 0.0 0 2001-09-05 Never
NetSlov Outernational 2001 1.0 4 2002-05-05 2009-08-04
Safri Duo Episode II 2001 4.0 13 2002-05-05 2017-03-27
Philip Glass Powaqqatsi 1988 0.0 0 2002-06-05 Never
Deep Forest Music Detected 2002 3.0 11 2002-08-05 2013-09-20
Deep Forest Pacifique 2001 6.0 20 2003-01-08 2015-04-30
Cirque Du Soleil Varekai 2003 0.0 0 2003-03-19 Never
Cirque Du Soleil Quidam 1997 0.0 0 2003-03-19 Never
Slanina Moravian and Slovak Songs 2001 1.0 4 2003-03-19 2008-04-04
The Lost Keyes Celtic Collection 2002 1.0 7 2003-03-19 2008-04-21
various The Rough Guide To The Music Of Scandinavia 2000 3.0 11 2003-03-19 2012-08-26
Lifescapes Greek Isles 1999 0.0 0 2003-03-19 Never
Lifescapes Hawaii 1999 2.3 15 2003-03-19 2015-04-13
Lifescapes Spanish Mystery 1999 0.0 0 2003-03-19 Never
Lifescapes French Cafe 1999 0.0 0 2003-03-19 Never
Yann Tiersen Amélie 2001 6.0 46 2003-03-19 2020-04-24
Иван Купала Радио Награ 2002 0.0 0 2003-03-19 Never
Hui Fen Min, Wei Li River Of Sorrow. Immortal Chinese Instrumentals 2002 0.0 0 2003-08-05 Never
various Icelandic Folk Music 1990 0.0 0 2003-10-01 Never
various Nordisk Sang 1991 0.0 0 2003-10-01 Never
NetSlov Phoenix 2003 1.0 6 2003-10-05 2010-05-19
Dr. Atmo & Ramin Sad World 1 1993 0.0 0 2003-11-02 Never
Dr. Atmo & Ramin Sad World 2 1994 0.0 0 2003-11-02 Never
Kronos Quartet Pieces Of Africa 1992 0.0 0 2004-01-05 Never
Robert Miles Miles Gurtu (with Trilok Gurtu) 2004 1.0 1 2004-04-21 2011-06-11
Juno Reactor Pistolero 1999 1.0 3 2004-05-26 2008-04-19
Cirque Du Soleil Alegria 1994 1.0 3 2004-06-12 2009-10-24
The Ukrainians Istoriya (The Best Of The Ukrainians) 2004 0.0 0 2004-06-12 Never
various Wizard Women Of The North 1999 0.0 0 2004-06-12 Never
Goran Bregović Underground 2003 0.0 0 2004-07-21 Never
Katsuya Yokoyama L'art Du Shakuhachi 1997 1.0 12 2004-07-21 2010-05-19
Peter Garcia & The Garcia Brothers Songs Of My People 1995 0.0 1 2004-07-21 2006-12-05
Robert Rich Yearning 1995 0.0 0 2004-07-21 Never
Shantel Bucovina Club 2003 0.0 0 2004-07-21 Never
Somei Satoh Sun Moon 1994 0.0 0 2004-07-21 Never
various The Rough Guide To Native American Music 1998 0.0 16 2004-07-21 2006-12-05
various The Rough Guide To The Music Of Eastern Europe 1998 0.0 0 2004-07-21 Never
Aziza Mustafa Zadeh Dance Of Fire 1995 0.0 12 2004-08-18 2008-10-19
Aziza Mustafa Zadeh Shamans 2002 0.0 14 2004-08-18 2008-08-28
various Vietnam. Musiques Des Montagnards 1998 0.0 0 2004-08-18 Never
various The Rough Guide To Sufi Music 2001 0.0 0 2004-08-18 Never
various Gongs of Vietnam-Laos 2002 0.0 0 2004-08-18 Never
Watazumi Doso The Art Of The Japanese Bamboo 1968 1.0 68 2004-08-18 2018-02-19
Yoshikazu Iwamoto The Spirit Of Silence 1995 0.0 0 2004-08-18 Never
Ensemble Nihon No Oto Traditional Chamber Music 1993 0.0 0 2004-09-05 Never
Les Pygmée Du Haut-Zaïre Kango-Efe-Asua 1994 0.0 0 2004-09-05 Never
Pygmees Mbenzele Polyphonies Vocales Des Pygmees Mbenzele 1992 0.0 0 2004-09-05 Never
Eligah Mangitak, Qaunnaq Mikigak And Qabaroak Qatsiya Songs Of The Inuit 1994 0.0 0 2004-10-27 Never
Labradford Mi Media Naranja 1997 1.0 7 2004-10-27 2008-04-08
Lambarena Bach To Africa 1995 0.0 0 2004-10-27 Never
Oofort World Ambient 2002 0.0 0 2004-10-27 Never
Zakir Hussain Soundscapes - Music Of The Deserts 1999 0.0 0 2004-10-27 Never
various Karma Culture 2 2003 0.0 0 2004-12-02 Never
Virgie Rivenhawk Canyon Dreams 2003 0.0 0 2004-12-02 Never
William Harjo Seasons For The Heart 2003 0.0 0 2004-12-02 Never
Chen Xionghua Chinese Violin Erhu 1998 0.0 0 2004-12-05 Never
Chinese Instrumental Music Series Cantonese Music I 1994 0.0 0 2004-12-05 Never
Chinese Instrumental Music Series Cantonese Music II 1994 0.0 0 2004-12-05 Never
Chinese Instrumental Music Series Music Played On The Guqin 1 1994 0.0 0 2004-12-05 Never
Chinese Instrumental Music Series Music Played On The Guqin 2 1994 0.0 0 2004-12-05 Never
Chinese Instrumental Music Series Music Played On The Guqin 3 1994 0.0 0 2004-12-05 Never
Chinese Instrumental Music Series Music Played On The Guqin 4 1994 0.0 0 2004-12-05 Never
Chinese Instrumental Music Series Pipa Masterpieces I 1994 0.0 0 2004-12-05 Never
Chinese Instrumental Music Series Pipa Masterpieces II 1994 0.0 0 2004-12-05 Never
Chinese Instrumental Music Series Suona Masterpieces 1994 0.0 0 2004-12-05 Never
Chinese Instrumental Music Series Zhongruan Masterpieces 1994 0.0 0 2004-12-05 Never
Jie-Bing Chen Spirit on Strings Vol. 1 (Traditional) 1993 0.0 0 2004-12-05 Never
Jie-Bing Chen Spirit on Two Strings Vol. 2 (Contemporary) 1993 0.0 0 2004-12-05 Never
Mysterious Note-Xun Mysterious Note-Xun 2002 0.0 0 2004-12-05 Never
Shi Fu Plum Blossoms Bloom A Third Time 2001 0.0 0 2004-12-05 Never
various China Erhu. Meeting In The Aobao Yurt 1998 0.0 0 2004-12-05 Never
various Sound from the Cloudland 1998 0.0 0 2004-12-05 Never
various Bamboo Instruments of Jiang Nan 1999 0.0 0 2004-12-05 Never
various Abing Florilegium 2001 0.0 0 2004-12-05 Never
various Spring In North 2001 0.0 0 2004-12-05 Never
various Chinese Suona Pipe 2003 0.0 0 2004-12-05 Never
Wang Lien The Lotus That Stands Out. Guzheng 1998 0.0 0 2004-12-05 Never
Yu Hong-Mei String Passions (Erhu) 1998 0.0 0 2004-12-05 Never
The Choral Spectacle of Singapadua Village In Bali Kecak In The Forest Of Anima 2001 0.0 0 2004-12-24 Never
various Songs from Ireland 2000 1.0 25 2004-12-24 2008-04-01
Alph Secakuku Rain Songs Hopi Katsina Prayers for Life 1997 0.0 0 2004-12-26 Never
Natay Navajo Singer 1951 0.0 22 2004-12-30 2020-07-28
various Hopi Butterfly 1967 0.0 0 2004-12-30 Never
various Utes - Traditional Ute Songs 1974 0.0 0 2004-12-30 Never
various Dizi Flute. Joy Of Just Married 2000 0.0 0 2004-12-30 Never
Zhao Liangshan Xun 2002 0.0 0 2004-12-30 Never
Monks Of The Dip Tse Chok Ling Monastery Sacred Ceremonies 2. Tantric Hymns & Music of Tibetan Buddhism 1992 0.0 0 2005-01-16 Never
Monks of the Sera Je Monastery Ritual Music and Chants of the Gelug Tradition 1998 0.0 0 2005-01-16 Never
Nonesuch Explorer Series Indonesia, South Pacific Music Sampler 2003 0.0 0 2005-01-16 Never
Ravi Shankar Chants of India 1997 0.0 0 2005-01-16 Never
various Night Recordings From Bali 2003 0.0 0 2005-01-16 Never
Udom Silapin na Chiang Mai Phleng Hae Sop (Funeral Music of Chiang Mai, Northern Thailand) 1990 0.0 0 2005-01-16 Never
Henry Cowell Primitive Music Of The World 1999 0.0 0 2005-01-16 Never
various Spiritual Music Of The Aboriginals - Didgeridoo Dreaming 1999 0.0 0 2005-01-16 Never
various Inuit Throat Music 2003 0.0 0 2005-01-16 Never
Kodo Ibuki 1997 0.0 0 2005-01-29 Never
Pasha Ishan Vocal Music Of The Uighurs 1992 0.0 0 2005-01-29 Never
Phong Nguyen Chamber Music Of South Vietnam 1983 0.0 0 2005-01-29 Never
Seoul Ensemble Of Traditional Music Korean Traditional Music 1992 0.0 0 2005-01-29 Never
T. Ganbold Mongolian Höömii 2001 0.0 0 2005-01-29 Never
various Le Mystère Des Voix Bulgares 2 1988 0.0 0 2005-01-29 Never
various Japanese Temple Music 1993 0.0 0 2005-01-29 Never
Ituri Pygmies Polyphony Of The Deep Rain Forest 1994 0.0 5 2005-01-29 2007-10-18
Yoshikazu Iwamoto The Spirit Of Wind 1995 0.0 0 2005-01-29 Never
Kohachiro Miyata Shakuhachi 1977 0.0 12 2005-03-17 2009-06-20
Kunaicho Gakubu Gagaku Japanese Traditional Music 1994 0.0 17 2005-03-17 2015-08-09
Okada, Ishikawa & Yonemura Splendeur Du Shakuhachi 1994 0.0 0 2005-03-17 Never
Riley Lee Music For Zen Meditation 2003 0.0 0 2005-03-17 Never
Tajima Tadashi Master Of Shakuhachi 1999 0.0 15 2005-03-17 2005-03-09
Anouar Brahem Astrakan Cafe 2001 0.0 0 2005-07-15 Never
Ensemble Nipponia Kabuki & Other Traditional Music 1980 0.0 0 2005-07-15 Never
Ensemble Nipponia Traditional Japanese Vocal & Instrumental Music 1990 0.0 11 2005-07-15 2005-07-18
Shpongle Tales Of The Inexpressible 2001 0.0 6 2005-09-28 2005-08-31
Angelite Mystères 1991 0.0 0 2005-10-01 Never
Bulgarian State Television Female Vocal Choir Le Mystère Des Voix Bulgares Volume 1 1988 1.0 1 2005-10-01 2012-09-26
Мужской Хор Православные Певчие Басы Профундо 0 0.0 0 2005-10-01 Never
Navajo Nation Navajo Songs 1933-1940 1940 0.0 0 2005-12-19 Never
Navajo Nation Navajo Songs Arizona 1975 From Canyon De Chelly 1975 0.0 3 2005-12-19 2020-07-28
Chinese Lute Verbal Pipa Chinese Lute Verbal 2002 0.0 0 2005-12-19 Never
John McLaughlin & Trilok Gurtu Molom - A Legend Of Mongolia OST 1995 0.1 4 2005-12-19 2008-04-01
Mongolian Shamans and Lamas Chamanes Et Lamas 1993 0.0 0 2005-12-19 Never
Ravi Shankar & Ali Akbar Khan From India 1995 0.0 0 2005-12-19 Never
various Treasures Of Irish Music 1993 0.0 0 2005-12-19 Never
various Lullaby For The Moon. Koto & Shakuhachi Music 1998 0.0 1 2005-12-19 2008-09-08
Ali Akbar Khan Garden of Dreams 2002 0.0 0 2005-12-27 Never
Annbjørg Lien Felefeber 1994 0.0 0 2005-12-27 Never
Эгшиглен Зазал 2002 0.0 0 2005-12-27 Never
Yamato Ensemble The Art of Japanese Koto, Shakuhachi & Shamisen 1996 1.0 1 2005-12-27 2012-11-19
Айайым Мой Алтай 2000 0.2 15 2006-01-01 2009-07-23
АлтайКай Там, Где Рождается Алтай 1999 0.0 0 2006-01-01 Never
Болот Барышев и Ногон Шумаров Уч-Сумер 1996 0.0 0 2006-01-01 Never
Дангаа Кошбаяр Алтай 2000 0.0 0 2006-01-01 Never
Ногон Алтай Мактал - Песни С Золотых Алтайских Гор 2001 0.0 0 2006-01-01 Never
Tibetan Institute Of Performing Arts Dhama Suna 1997 0.0 0 2006-01-01 Never
Toru Takemitsu Ran 1985 0.0 0 2006-01-04 Never
Toru Takemitsu The Best of Toru Takemitsu 2002 0.0 0 2006-01-04 Never
Toru Takemitsu Gagaku - In an Autumn Garden 0 0.0 0 2006-01-04 Never
Toru Takemitsu Orchestral Works (Requiem) 0 0.0 0 2006-01-04 Never
Узляу Пение Саян, Алтая И Уральских Гор 1994 0.0 36 2006-01-04 2008-09-09
various Ancient Swedish Pastoral Music [Lockrop & Vallåtar] 1966 0.0 22 2006-01-04 2006-01-04
various Hawaiian Drum Dance Chants - Sounds Of Power In Time 1989 0.0 1 2006-01-04 2006-01-04
various Japanese Traditional - Biwa 1990 0.0 0 2006-01-04 Never
Japanese Koto Consort Japanese Koto Consort 1983 0.0 0 2006-01-09 Never
Jean-Pierre Rampal and Lily Laskine Japanese Melodies For Flute And Harp 1994 0.0 1 2006-01-09 2006-01-10
Kirile Loo Saatus 1994 0.0 0 2006-01-09 Never
Clive Bell Kurokami 1988 0.0 0 2006-01-09 Never
Nogaku Traditional Japanese Music 1994 0.0 2 2006-01-09 2006-06-10
various Inuit Chants & Drums From Thule To The Bering Strait 1988 0.0 0 2006-01-09 Never
various Казахстан - Музыка Алматы 1994 0.0 0 2006-01-09 Never
various Rhythms Of Rapture. Sacred Music Of Haitian Vodou 1995 0.0 0 2006-01-09 Never
various Turkmenistan - Songs Of Bakhshi Women 1995 0.0 0 2006-01-09 Never
Sabjilar Syr Chrome 1999 0.0 0 2006-01-13 Never
Silapin Khawngthongkham With Nai Sombat Sangviengthong 0 0.0 0 2006-01-13 Never
various Papua New Guinea Voices 1993 0.0 0 2006-01-13 Never
various Denmark - Singers & Fiddlers 1996 0.0 0 2006-01-13 Never
Adiemus The Best Of Adiemus. The Journey 1999 6.0 24 2006-02-07 2019-07-07
Anouar Brahem Barzakh 1991 0.0 0 2006-02-07 Never
Leegajus Eesti Rahvalaule Ja Pillilugusid 1975 0.0 0 2006-02-07 Never
Shanghai Chinese Traditional Orchestra Tortoise Feng Shui Music 1996 0.0 0 2006-02-07 Never
Siberie 1. Shamanic And Narrative Songs Of The Siberian Arctic. Nganasan People 1995 0.0 0 2006-02-07 Never
Siberie 2. Yakutia. Epics and improvisations. Sakha People 1999 0.0 0 2006-02-07 Never
Siberie 3. Songs Of Nature And Animals - Чукчи, Эвены, Юкагиры, Колыма 1999 0.0 0 2006-02-07 Never
Siberie 4. Kamtchatka. Tambours De Danse De L'extrême-Orient Sibérien 1999 0.0 0 2006-02-07 Never
Siberie 5. Shamanic & Daily Songs From the Amur Basin 1999 0.0 5 2006-02-07 2006-02-08
Siberie 6. Sakhalin Vocal And Instrumental Music 1999 0.0 0 2006-02-07 Never
Siberie 7. Nenec Selkup. Voices From Arctic Land's End 1999 0.0 0 2006-02-07 Never
Siberie 8. Evenki. Ritual Songs Of The Nomadic Taiga People 1999 0.0 0 2006-02-07 Never
U Ba Than Basic Pieces for Saung and Pattala 1970 0.0 18 2006-02-07 2006-01-22
various TUVA. Voice From The Center Of Asia 1990 1.0 5 2006-02-07 2008-04-07
various Songs of the Earth - Astonishing and Rare Voices 1998 0.0 0 2006-02-07 Never
Kung Tone Chinese Five Tones Healing Music 0 0.0 0 2006-02-08 Never
various Autumn Meditation At Dongting Lake (Ming Dynasty 1368-1644) 0 0.0 12 2006-02-08 2006-02-05
various Dance Music Of Imperial Palace (Tang Dynasty 618-907 AD) 0 0.0 7 2006-02-08 2006-02-05
various Recall Of Old Time At Tongguan Pass (Yuan Dynasty 1271-1368) 0 0.0 0 2006-02-08 Never
various Shadows Of Apricot Blossoms (Song Dynasty 960-1279) 0 0.0 0 2006-02-08 Never
various Sounds Left From Ancient Times (Six Dynasties 770 BC - 580 AD) 0 0.0 0 2006-02-08 Never
various Wild Goose on the Peaceful Beach (Qing Dynasty 1644-1911) 0 0.0 0 2006-02-08 Never
various Classical Chinese Folk Music 2000 0.0 1 2006-04-10 2006-04-11
Dream of Red Chamber (Chinese Flute) Dream of Red Chamber 2002 0.0 0 2006-05-05 Never
The Rustavi Choir Грузинские Духовные Песнопения 1994 0.0 0 2006-06-01 Never
Jean Michel Jarre Zoolook (maxi) 1984 0.0 4 2006-06-19 2006-06-19
Philip Glass Orion 2005 0.0 10 2006-06-25 2006-06-18
Ravi Shankar & Philip Glass Passages 1990 0.0 0 2006-06-25 Never
Banco de Gaia Farewell Ferengistan 2006 0.0 1 2006-08-09 2006-08-09
Ronan Hardiman Lord Of The Dance 1997 1.0 10 2006-08-26 2008-03-07
Алексей Рыбников Заяц Над Бездной 2006 0.0 1 2006-08-26 2006-08-27
Andean Symphony Vol. 1 From The Incas To The World 1996 0.0 3 2006-10-04 2006-10-04
Isa Lei The Traditional Music Of Fiji 1958 0.0 1 2006-10-04 2006-10-04
NetSlov Electronic Ethnology 2004 0.0 4 2006-10-25 2006-10-08
Byron Begay Ceremonial Peyote Songs 2004 0.0 6 2006-11-24 2006-11-25
Chuck Jonkey Peyote Ceremony 2000 0.0 0 2006-11-24 Never
Mike Primeaux & Attson Peyote Songs Of The Native American Church 1998 0.0 0 2006-11-24 Never
Robedeaux And Stoner McClellan Prayers for Life - Peyote Songs of the Native American Church 2006 0.0 3 2006-11-24 2006-12-18
various Peyote Ceremonial Songs Vintage Collection 1998 0.0 0 2006-11-24 Never
various Under The Green Corn Moon - Native American Lullabies 1998 0.0 0 2006-11-24 Never
various Weaving The Strands - Native American Women 1998 0.0 1 2006-11-24 2006-12-05
various Borat OST 2006 5.0 18 2006-11-24 2012-09-07
various Traditional Voices - Historic Recordings Of Traditional Native American Music 1998 0.0 0 2006-11-24 Never
Баба Яга Куда Ты Пойдёшь 1993 0.0 0 2006-12-09 Never
Etsuko Chida Japan. Courtly Songs 2002 0.0 0 2006-12-31 Never
Fingguy Flang And Luming Tuan Lute Music In T'boli Country 2003 0.0 0 2006-12-31 Never
Jean Michel Jarre Revolutions Extended Remix 1988 0.1 0 2007-01-25 Never
Blackduck Famous Russian Songs 2006 0.0 0 2007-05-28 Never
Етнічна Музика України Космацькі Музики 2004 0.0 3 2007-09-30 2007-09-28
Trubački Orkestar Dejana Lazarevića Trubački Orkestar Dejana Lazarevića 2005 0.0 19 2008-01-14 2008-01-08
various Indestructible Balkan Beats 2005 0.0 4 2008-06-20 2008-06-29
Arthur Lyman Hawaiian Sunset Vol. 2 1965 1.0 44 2008-07-25 2010-05-17
Martin Denny Forbidden Island 1958 0.0 0 2008-07-25 Never
Martin Denny Hypnotique 1958 0.0 3 2008-07-25 2008-04-08
Martin Denny Primitiva 1958 0.0 0 2008-07-25 Never
Martin Denny Exotica III 1959 0.0 0 2008-07-25 Never
Martin Denny Quiet Village 1959 0.0 0 2008-07-25 Never
Alamooga Esinlenmeler Sentetik Oyun Havalar 1975 0.0 27 2008-07-30 2008-07-29
The Future Sound Of London Heads Of Agreement - The San Monta Tapes 2007 0.0 0 2008-08-19 Never
Yage The Woodlands Of Old 2008 0.0 0 2008-08-19 Never
Кола Бельды Белый Остров 1987 0.0 0 2008-10-09 Never
Armando Trovaioli Il Profeta (The Prophet) 1968 1.0 19 2008-11-01 2008-12-23
Mike Myers The Love Guru 2008 8.0 27 2008-11-01 2015-06-26
Kenneth Bager Luftkastellet 3 2005 1.0 7 2008-11-15 2014-07-15
Борис Гребенщиков Concert At The Royal Albert Hall 2008 0.0 2 2008-11-15 2008-11-11
Shanghai Restoration Project Shanghai Restoration Project 2006 0.0 1 2008-11-25 2007-03-30
JPP String Tease 1999 1.0 5 2008-12-09 2009-01-23
U2 In The Name Of Love - Africa Celebrates U2 2008 0.0 0 2008-12-09 Never
Damon Albarn & Michael Nyman Ravenous 1999 1.0 7 2008-12-15 2009-03-08
Tuomas Kantelinen Mongol 2008 0.0 0 2008-12-15 Never
various Русская Эпическая Поэзия Сибири и Дальнего Востока 1985 0.0 0 2008-12-15 Never
various Vintage Music From India 1993 0.0 0 2008-12-15 Never
The Future Sound Of London Environments II 2008 0.0 13 2009-02-01 2009-01-29
Хуун-Хуур-Ту 60 Лошадей В Моём Табуне 1993 0.0 2 2009-02-01 2009-01-29
Хуун-Хуур-Ту Плач Сироты 1994 0.0 0 2009-02-01 Never
Bliss No One Built This Moment 2009 1.1 12 2009-08-05 2011-08-12
Болот Барышев Там, Где Рождается Алтай 2003 0.0 0 2009-08-05 Never
Alexandre Desplat Sous Les Pieds Des Femmes 1997 0.0 0 2009-10-01 Never
Alexandre Desplat Syriana 2005 1.0 1 2009-10-01 2009-10-24
Bliss They Made History 2005 3.1 10 2009-10-01 2012-11-27
OMFO Omnipresence 2009 3.1 5 2009-10-01 2012-11-21
René Dupéré Xotika - Journey To The Heart 2003 0.1 1 2009-12-19 2009-12-18
Shantel Planet Paprika 2009 0.0 0 2010-01-13 Never
Marga Sotirovska Beat Of The Old Bazar 2008 0.0 0 2010-02-27 Never
Mizuyo Komiya Lullaby 2000 0.0 0 2010-02-27 Never
Алсу Родная Речь (Туган Тел) 2008 0.0 0 2010-02-27 Never
4'33'' Falls 1997 0.0 0 2010-04-12 Never
4'33'' Sisters Grimm Tales 1997 0.0 0 2010-04-12 Never
Ludovico Einaudi & Ballaké Sissoko Diario Mali 2003 2.1 3 2010-04-12 2012-01-05
Птица Тылобурдо Пух И Перья 2002 0.0 0 2010-05-14 Never
Птица Тылобурдо ВремеВод 2006 0.0 0 2010-05-14 Never
Inuit Historical Recordings - Traditional Music From Greenland [1905-1987] 2008 0.0 0 2010-07-27 Never
various Africa All Stars 2002 0.0 0 2010-08-06 Never
Isao Sasaki The Way We Were 2009 0.0 0 2010-08-18 Never
Grigoraș Dinicu Vioară 0 0.0 0 2011-05-02 Never
M-Seven Activate 2005 0.0 0 2011-05-03 Never
M-Seven Stimulus 2008 0.0 0 2011-05-03 Never
Анатолий Кирияк Неизвестные Мелодии 1991 1.0 1 2011-05-03 2012-10-25
Daizy The Daizy Factory 2011 2.0 5 2011-06-03 2011-10-19
Fanfare Ciocărlia Gili Garabdi 2005 1.0 2 2011-06-03 2011-12-24
Georghe Zamfir Panflute And Organ 1995 0.0 0 2011-06-03 Never
Gold Panda Companion 2011 1.0 1 2011-06-03 2012-12-07
Deep Forest Deep Brasil 2008 0.0 0 2011-06-28 Never
Polkaholix The Great Polka Swindle 2007 4.1 13 2011-07-18 2012-07-15
Hokkaido Sigh For The Beauty 2011 3.0 8 2011-09-12 2012-02-15
Vladimir Cosma Le Plus Beau Metier Du Monde 1996 0.0 0 2011-09-19 Never
Tomáš Dvořák Machinarium 2009 0.0 0 2011-10-03 Never
Ramio Lin Мистический Композитор 2011 1.0 5 2012-01-09 2012-05-19
Буготак Каверлар 2006 1.0 2 2012-01-12 2012-02-19
Квартет Бориса Тихонова Квартет Бориса Тихонова 1977 5.0 9 2012-01-12 2017-03-26
Baaba Maal & Brazilian Girls Television 2009 0.0 0 2012-01-13 Never
Galerie Stratique Faux World 2008 0.0 0 2012-01-18 Never
Cities Of Foam A Great Day For The Race 2005 1.0 1 2012-01-25 2012-03-21
Stereoscope Jerk Explosion La Panthere Pop 2008 2.0 2 2012-03-12 2012-05-16
Пётр Дранга Перспектива 2011 1.1 3 2012-03-13 2012-05-12
Francis Bebey African Electronic Music 1975-1982 2011 0.0 0 2012-06-18 Never
Adrián Berenguer La Ballena Azul 2012 2.0 15 2012-07-20 2012-09-29
Иван Купала Родина 2012 0.0 3 2012-08-11 2012-08-10
Фирюза Фирюза 1979 0.0 0 2012-09-18 Never
Aurora Borealis Aurora Borealis 1997 0.0 0 2012-09-18 Never
Емир Кустурица Le Temps Des Gitans 2007 0.0 2 2012-09-25 2012-09-24
Rachid Taha Tékitoi 2004 1.0 8 2012-09-26 2012-12-02
The Tannahill Weavers The Tannahill Weavers 1979 1.0 7 2012-09-26 2012-11-27
The Tannahill Weavers Leaving St Kilda 1996 0.1 4 2012-09-26 2012-11-28
Монгол Аялгуу Монгол Аялгуу 1976 0.0 1 2012-10-03 2012-10-02
Hughes De Courson Mozart In Egypt 1997 0.0 0 2012-10-06 Never
Daizy Amarat 2012 1.0 8 2012-12-07 2012-11-16
Deep Forest Deep India 2013 0.0 0 2013-03-05 Never
Deep Forest Deep Africa 2013 0.0 1 2013-05-01 2013-05-01
Joël Francisco Perri Mandolins From Italy 2013 1.0 2 2014-08-01 2014-08-14
various Ой, При Поле, При Долине. Songs From The Bryansk, Voronezh And Belgorod Regions 1999 0.0 0 2014-09-10 Never
various Музыка Северного Сиянья 1990 0.0 0 2015-04-08 Never
Chris Joss Sticks 2009 2.0 36 2015-04-15 2015-06-10
Michel Sanchez Eliott 2014 1.0 4 2015-05-11 2015-09-27
Yves Hayat Conversation Between The East And The West 1975 0.0 4 2015-06-08 2015-05-07
Adiemus Adiemus III - Dances of Time 1998 0.0 0 2015-09-05 Never
Adiemus Adiemus IV - The Eternal Knot 2000 0.0 0 2015-09-05 Never
Adiemus Adiemus V - Vocalise 2003 0.0 0 2015-09-05 Never
Adiemus Adiemus II - Cantata Mundi 1996 0.0 0 2015-09-05 Never
Adiemus Adiemus I - Songs of Sanctuary 1995 3.0 3 2015-09-05 2015-09-05
Les Amis'kuztars First Cube 2015 2.0 7 2015-09-08 2016-01-02
Mahala Raï Banda Mahala Raï Banda 2004 0.1 2 2015-09-18 2015-09-19
Charles J. N. Casey, Steven G. Hellier, Johnny Kalsi Urban India 2013 1.0 3 2015-10-14 2015-10-14
various Vive La France 2012 1.0 1 2015-10-18 2015-11-27
various Asia Chill 2013 1.0 1 2015-11-18 2015-11-18
Jay Price China 2013 0.0 0 2015-12-26 Never
Sugar God Amanzi 2014 2.0 18 2016-03-01 2016-05-04
Deep Forest Evo Devo 2016 1.0 2 2016-06-08 2016-07-13
Shye Ben Tzur, Jonny Greenwood and the Rajasthan Express Junun 2015 0.0 0 2016-08-08 Never
Ishtar Baila 2016 1.0 2 2016-11-29 2016-11-28
2Planet Frequencies 2016 5.2 22 2017-03-17 2017-06-10
Uwaga! & Max Klaas Mozartovic 2017 0.0 0 2017-07-21 Never
various Passport To Korea 2017 0.0 0 2017-11-08 Never
The Accordions Of Paris All The Best 0 1.0 1 2018-02-18 2018-02-18
Starship Z Kosmostan 2015 2.0 3 2018-02-18 2018-02-18
Kazakh State String Quartet Kazakh Classical Music - String Quartets 2017 0.0 0 2018-03-09 Never
Dan Lacksman Pangea 1996 0.0 2 2018-10-03 2018-10-03
various Hawaiian Steel Guitar Classics 1927-1938 1938 0.0 0 2020-06-19 Never
Northern Cree ᓂᑎᓴᓇᐠ - Nîtisânak Brothers and Sister 2018 0.0 0 2020-11-01 Never
various Musiques de la Toundra et de la Taiga. Buryats, Yakuts, Tungus, Nenets, Nganasan 0 0.0 1 2021-03-25 2021-03-25
Kick Out The JAMS! Aulismedia Music Library 2018.02.18 "Space Oddity" © Sergey Mishenev 2003-2021